sensor_id;sensor_type;location;lat;lon;timestamp;pressure;altitude;pressure_sealevel;temperature;humidity
37486;BME280;23341;50.296;18.960;2023-07-13T00:01:05;53964.16;;;-144.43;100.00
37486;BME280;23341;50.296;18.960;2023-07-13T00:06:20;53900.13;;;-144.43;100.00
37486;BME280;23341;50.296;18.960;2023-07-13T00:11:23;53868.13;;;-144.43;100.00
37486;BME280;23341;50.296;18.960;2023-07-13T00:16:27;53762.06;;;-144.43;100.00
37486;BME280;23341;50.296;18.960;2023-07-13T00:21:33;53812.09;;;-144.43;100.00
37486;BME280;23341;50.296;18.960;2023-07-13T00:26:37;53878.13;;;-144.43;100.00
37486;BME280;23341;50.296;18.960;2023-07-13T00:31:41;53894.13;;;-144.43;100.00
37486;BME280;23341;50.296;18.960;2023-07-13T00:36:47;53890.13;;;-144.43;100.00
37486;BME280;23341;50.296;18.960;2023-07-13T00:41:51;53934.16;;;-144.43;100.00
37486;BME280;23341;50.296;18.960;2023-07-13T00:46:55;53894.13;;;-144.43;100.00
37486;BME280;23341;50.296;18.960;2023-07-13T00:52:04;53890.13;;;-144.43;100.00
37486;BME280;23341;50.296;18.960;2023-07-13T00:57:12;53932.16;;;-144.43;100.00
37486;BME280;23341;50.296;18.960;2023-07-13T01:02:17;53942.16;;;-144.43;100.00
37486;BME280;23341;50.296;18.960;2023-07-13T01:07:23;53806.09;;;-144.43;100.00
37486;BME280;23341;50.296;18.960;2023-07-13T01:12:27;53806.09;;;-144.43;100.00
37486;BME280;23341;50.296;18.960;2023-07-13T01:17:31;53924.13;;;-144.43;100.00
37486;BME280;23341;50.296;18.960;2023-07-13T01:22:38;53880.13;;;-144.43;100.00
37486;BME280;23341;50.296;18.960;2023-07-13T01:27:42;53926.13;;;-144.43;100.00
37486;BME280;23341;50.296;18.960;2023-07-13T01:32:45;53970.16;;;-144.43;100.00
37486;BME280;23341;50.296;18.960;2023-07-13T01:37:51;53990.16;;;-144.43;100.00
37486;BME280;23341;50.296;18.960;2023-07-13T01:42:55;53942.16;;;-144.43;100.00
37486;BME280;23341;50.296;18.960;2023-07-13T01:48:00;53950.16;;;-144.43;100.00
37486;BME280;23341;50.296;18.960;2023-07-13T01:53:05;53970.16;;;-144.43;100.00
37486;BME280;23341;50.296;18.960;2023-07-13T01:58:09;53902.13;;;-144.43;100.00
37486;BME280;23341;50.296;18.960;2023-07-13T02:03:14;53922.13;;;-144.43;100.00
37486;BME280;23341;50.296;18.960;2023-07-13T02:08:21;53908.13;;;-144.43;100.00
37486;BME280;23341;50.296;18.960;2023-07-13T02:13:26;53746.06;;;-144.43;100.00
37486;BME280;23341;50.296;18.960;2023-07-13T02:18:30;53766.06;;;-144.43;100.00
37486;BME280;23341;50.296;18.960;2023-07-13T02:23:35;53752.06;;;-144.43;100.00
37486;BME280;23341;50.296;18.960;2023-07-13T02:28:39;53752.06;;;-144.43;100.00
37486;BME280;23341;50.296;18.960;2023-07-13T02:33:43;53766.06;;;-144.43;100.00
37486;BME280;23341;50.296;18.960;2023-07-13T02:38:49;53784.06;;;-144.43;100.00
37486;BME280;23341;50.296;18.960;2023-07-13T02:43:53;53826.09;;;-144.43;100.00
37486;BME280;23341;50.296;18.960;2023-07-13T02:49:05;53866.13;;;-144.43;100.00
37486;BME280;23341;50.296;18.960;2023-07-13T02:54:10;53736.06;;;-144.43;100.00
37486;BME280;23341;50.296;18.960;2023-07-13T02:59:16;53822.09;;;-144.43;100.00
37486;BME280;23341;50.296;18.960;2023-07-13T03:10:10;53816.09;;;-144.43;100.00
37486;BME280;23341;50.296;18.960;2023-07-13T03:15:22;53874.13;;;-144.43;100.00
37486;BME280;23341;50.296;18.960;2023-07-13T03:20:28;53816.09;;;-144.43;100.00
37486;BME280;23341;50.296;18.960;2023-07-13T03:25:33;53862.13;;;-144.43;100.00
37486;BME280;23341;50.296;18.960;2023-07-13T03:30:38;53882.13;;;-144.43;100.00
37486;BME280;23341;50.296;18.960;2023-07-13T03:35:42;53878.13;;;-144.43;100.00
37486;BME280;23341;50.296;18.960;2023-07-13T03:40:47;53836.09;;;-144.43;100.00
37486;BME280;23341;50.296;18.960;2023-07-13T03:45:52;53788.06;;;-144.43;100.00
37486;BME280;23341;50.296;18.960;2023-07-13T03:50:56;53904.13;;;-144.43;100.00
37486;BME280;23341;50.296;18.960;2023-07-13T03:56:01;53938.16;;;-144.43;100.00
37486;BME280;23341;50.296;18.960;2023-07-13T04:01:07;53962.16;;;-144.43;100.00
37486;BME280;23341;50.296;18.960;2023-07-13T04:06:15;53882.13;;;-144.43;100.00
37486;BME280;23341;50.296;18.960;2023-07-13T04:11:27;53948.16;;;-144.43;100.00
37486;BME280;23341;50.296;18.960;2023-07-13T04:16:31;53944.16;;;-144.43;100.00
37486;BME280;23341;50.296;18.960;2023-07-13T04:21:36;53898.13;;;-144.43;100.00
37486;BME280;23341;50.296;18.960;2023-07-13T04:26:41;53890.13;;;-144.43;100.00
37486;BME280;23341;50.296;18.960;2023-07-13T04:31:45;53920.13;;;-144.43;100.00
37486;BME280;23341;50.296;18.960;2023-07-13T04:36:49;54014.19;;;-144.43;100.00
37486;BME280;23341;50.296;18.960;2023-07-13T04:41:54;54074.22;;;-144.43;100.00
37486;BME280;23341;50.296;18.960;2023-07-13T04:46:58;54114.22;;;-144.43;100.00
37486;BME280;23341;50.296;18.960;2023-07-13T04:52:02;54184.28;;;-144.43;100.00
37486;BME280;23341;50.296;18.960;2023-07-13T04:57:08;54258.31;;;-144.43;100.00
37486;BME280;23341;50.296;18.960;2023-07-13T05:02:11;54214.28;;;-144.43;100.00
37486;BME280;23341;50.296;18.960;2023-07-13T05:07:15;54254.31;;;-144.43;100.00
37486;BME280;23341;50.296;18.960;2023-07-13T05:12:20;54274.31;;;-144.43;100.00
37486;BME280;23341;50.296;18.960;2023-07-13T05:17:24;54310.34;;;-144.43;100.00
37486;BME280;23341;50.296;18.960;2023-07-13T05:22:28;54378.38;;;-144.43;100.00
37486;BME280;23341;50.296;18.960;2023-07-13T05:27:33;54394.38;;;-144.43;100.00
37486;BME280;23341;50.296;18.960;2023-07-13T05:32:37;54426.41;;;-144.43;100.00
37486;BME280;23341;50.296;18.960;2023-07-13T05:37:41;54378.38;;;-144.43;100.00
37486;BME280;23341;50.296;18.960;2023-07-13T05:42:46;54518.47;;;-144.43;100.00
37486;BME280;23341;50.296;18.960;2023-07-13T05:47:50;54598.50;;;-144.43;100.00
37486;BME280;23341;50.296;18.960;2023-07-13T05:52:54;54664.56;;;-144.43;100.00
37486;BME280;23341;50.296;18.960;2023-07-13T05:58:01;54674.56;;;-144.43;100.00
37486;BME280;23341;50.296;18.960;2023-07-13T06:03:05;54864.69;;;-144.43;99.04
37486;BME280;23341;50.296;18.960;2023-07-13T06:08:09;54998.78;;;-144.43;95.90
37486;BME280;23341;50.296;18.960;2023-07-13T06:13:14;55060.84;;;-144.43;94.25
37486;BME280;23341;50.296;18.960;2023-07-13T06:18:18;55248.97;;;-144.43;93.41
37486;BME280;23341;50.296;18.960;2023-07-13T06:23:22;55507.19;;;-144.43;90.41
37486;BME280;23341;50.296;18.960;2023-07-13T06:28:28;55831.50;;;-144.43;87.00
37486;BME280;23341;50.296;18.960;2023-07-13T06:33:31;55923.59;;;-144.43;74.66
37486;BME280;23341;50.296;18.960;2023-07-13T06:38:35;55763.44;;;-144.43;69.04
37486;BME280;23341;50.296;18.960;2023-07-13T06:43:40;55603.28;;;-144.43;71.16
37486;BME280;23341;50.296;18.960;2023-07-13T06:48:44;55341.06;;;-144.43;71.09
37486;BME280;23341;50.296;18.960;2023-07-13T06:53:48;55174.94;;;-144.43;71.81
37486;BME280;23341;50.296;18.960;2023-07-13T06:58:53;55098.88;;;-144.43;73.71
37486;BME280;23341;50.296;18.960;2023-07-13T07:03:57;54814.66;;;-144.43;74.18
37486;BME280;23341;50.296;18.960;2023-07-13T07:09:01;54646.53;;;-144.43;74.21
37486;BME280;23341;50.296;18.960;2023-07-13T07:14:07;54460.44;;;-144.43;76.07
37486;BME280;23341;50.296;18.960;2023-07-13T07:19:11;54402.41;;;-144.43;77.79
37486;BME280;23341;50.296;18.960;2023-07-13T07:24:15;54282.31;;;-144.43;79.54
37486;BME280;23341;50.296;18.960;2023-07-13T07:29:20;54196.28;;;-144.43;79.82
37486;BME280;23341;50.296;18.960;2023-07-13T07:34:27;54046.19;;;-144.43;78.15
37486;BME280;23341;50.296;18.960;2023-07-13T07:39:31;53822.09;;;-144.43;81.06
37486;BME280;23341;50.296;18.960;2023-07-13T07:44:36;53828.09;;;-144.43;81.59
37486;BME280;23341;50.296;18.960;2023-07-13T07:49:40;53990.16;;;-144.43;82.41
37486;BME280;23341;50.296;18.960;2023-07-13T07:54:44;53978.16;;;-144.43;84.27
37486;BME280;23341;50.296;18.960;2023-07-13T07:59:52;54038.19;;;-144.43;82.48
37486;BME280;23341;50.296;18.960;2023-07-13T08:04:59;53836.09;;;-144.43;84.67
37486;BME280;23341;50.296;18.960;2023-07-13T08:10:07;54144.25;;;-144.43;80.62
37486;BME280;23341;50.296;18.960;2023-07-13T08:15:14;54552.47;;;-144.43;72.77
37486;BME280;23341;50.296;18.960;2023-07-13T08:20:18;54588.50;;;-144.43;71.41
37486;BME280;23341;50.296;18.960;2023-07-13T08:25:22;54742.59;;;-144.43;71.46
37486;BME280;23341;50.296;18.960;2023-07-13T08:30:27;54558.50;;;-144.43;75.08
37486;BME280;23341;50.296;18.960;2023-07-13T08:35:31;54886.72;;;-144.43;72.50
37486;BME280;23341;50.296;18.960;2023-07-13T08:40:35;55130.88;;;-144.43;70.64
37486;BME280;23341;50.296;18.960;2023-07-13T08:45:43;54922.72;;;-144.43;68.50
37486;BME280;23341;50.296;18.960;2023-07-13T08:50:49;54746.63;;;-144.43;69.19
37486;BME280;23341;50.296;18.960;2023-07-13T08:56:02;54846.69;;;-144.43;69.55
37486;BME280;23341;50.296;18.960;2023-07-13T09:01:17;54686.56;;;-144.43;71.89
37486;BME280;23341;50.296;18.960;2023-07-13T09:06:30;54596.50;;;-144.43;72.63
37486;BME280;23341;50.296;18.960;2023-07-13T09:11:43;54634.53;;;-144.43;74.40
37486;BME280;23341;50.296;18.960;2023-07-13T09:16:50;54432.41;;;-144.43;75.79
37486;BME280;23341;50.296;18.960;2023-07-13T09:21:55;54262.31;;;-144.43;79.66
37486;BME280;23341;50.296;18.960;2023-07-13T09:27:02;53994.16;;;-144.43;81.19
37486;BME280;23341;50.296;18.960;2023-07-13T09:32:10;53654.03;;;-144.43;82.77
37486;BME280;23341;50.296;18.960;2023-07-13T09:37:18;53413.94;;;-144.43;84.08
37486;BME280;23341;50.296;18.960;2023-07-13T09:42:23;53413.94;;;-144.43;82.92
37486;BME280;23341;50.296;18.960;2023-07-13T09:47:37;53157.84;;;-144.43;83.00
37486;BME280;23341;50.296;18.960;2023-07-13T09:52:43;52953.81;;;-144.43;86.59
37486;BME280;23341;50.296;18.960;2023-07-13T09:57:48;52703.75;;;-144.43;90.55
37486;BME280;23341;50.296;18.960;2023-07-13T10:03:05;52445.72;;;-144.43;99.26
37486;BME280;23341;50.296;18.960;2023-07-13T10:08:23;52291.72;;;-144.43;100.00
37486;BME280;23341;50.296;18.960;2023-07-13T10:13:33;52295.72;;;-144.43;100.00
37486;BME280;23341;50.296;18.960;2023-07-13T10:18:44;52537.72;;;-144.43;100.00
37486;BME280;23341;50.296;18.960;2023-07-13T10:23:51;52759.75;;;-144.43;100.00
37486;BME280;23341;50.296;18.960;2023-07-13T10:29:02;52873.78;;;-144.43;100.00
37486;BME280;23341;50.296;18.960;2023-07-13T10:34:11;52993.81;;;-144.43;100.00
37486;BME280;23341;50.296;18.960;2023-07-13T10:39:18;53053.81;;;-144.43;100.00
37486;BME280;23341;50.296;18.960;2023-07-13T10:44:24;53139.84;;;-144.43;100.00
37486;BME280;23341;50.296;18.960;2023-07-13T10:49:33;53133.84;;;-144.43;100.00
37486;BME280;23341;50.296;18.960;2023-07-13T10:54:38;53195.88;;;-144.43;100.00
37486;BME280;23341;50.296;18.960;2023-07-13T10:59:42;53215.88;;;-144.43;100.00
37486;BME280;23341;50.296;18.960;2023-07-13T11:04:49;53163.84;;;-144.43;100.00
37486;BME280;23341;50.296;18.960;2023-07-13T11:09:56;53199.88;;;-144.43;100.00
37486;BME280;23341;50.296;18.960;2023-07-13T11:15:05;53263.88;;;-144.43;100.00
37486;BME280;23341;50.296;18.960;2023-07-13T11:20:23;53199.88;;;-144.43;100.00
37486;BME280;23341;50.296;18.960;2023-07-13T11:25:29;53253.88;;;-144.43;100.00
37486;BME280;23341;50.296;18.960;2023-07-13T11:30:36;53309.91;;;-144.43;100.00
37486;BME280;23341;50.296;18.960;2023-07-13T11:35:49;53299.91;;;-144.43;100.00
37486;BME280;23341;50.296;18.960;2023-07-13T11:40:55;53317.91;;;-144.43;100.00
37486;BME280;23341;50.296;18.960;2023-07-13T11:46:15;53417.94;;;-144.43;100.00
37486;BME280;23341;50.296;18.960;2023-07-13T11:51:22;53517.97;;;-144.43;100.00
37486;BME280;23341;50.296;18.960;2023-07-13T11:56:27;53491.97;;;-144.43;100.00
37486;BME280;23341;50.296;18.960;2023-07-13T12:01:32;53537.97;;;-144.43;100.00
37486;BME280;23341;50.296;18.960;2023-07-13T12:06:37;53676.03;;;-144.43;100.00
37486;BME280;23341;50.296;18.960;2023-07-13T12:11:44;53800.09;;;-144.43;100.00
37486;BME280;23341;50.296;18.960;2023-07-13T12:16:48;53866.13;;;-144.43;100.00
37486;BME280;23341;50.296;18.960;2023-07-13T12:21:56;53902.13;;;-144.43;100.00
37486;BME280;23341;50.296;18.960;2023-07-13T12:27:02;54024.19;;;-144.43;100.00
37486;BME280;23341;50.296;18.960;2023-07-13T12:32:08;54190.28;;;-144.43;100.00
37486;BME280;23341;50.296;18.960;2023-07-13T12:37:14;54258.31;;;-144.43;98.16
37486;BME280;23341;50.296;18.960;2023-07-13T12:42:21;53968.16;;;-144.43;99.51
37486;BME280;23341;50.296;18.960;2023-07-13T12:47:29;53944.16;;;-144.43;99.61
37486;BME280;23341;50.296;18.960;2023-07-13T12:52:34;53924.13;;;-144.43;97.76
37486;BME280;23341;50.296;18.960;2023-07-13T12:57:40;53952.16;;;-144.43;100.00
37486;BME280;23341;50.296;18.960;2023-07-13T13:02:49;54196.28;;;-144.43;95.67
37486;BME280;23341;50.296;18.960;2023-07-13T13:07:55;54156.25;;;-144.43;95.43
37486;BME280;23341;50.296;18.960;2023-07-13T13:12:59;54000.19;;;-144.43;92.63
37486;BME280;23341;50.296;18.960;2023-07-13T13:18:08;54356.38;;;-144.43;90.75
37486;BME280;23341;50.296;18.960;2023-07-13T13:23:19;53770.06;;;-144.43;94.60
37486;BME280;23341;50.296;18.960;2023-07-13T13:28:23;54190.28;;;-144.43;88.69
37486;BME280;23341;50.296;18.960;2023-07-13T13:33:26;54104.22;;;-144.43;90.34
37486;BME280;23341;50.296;18.960;2023-07-13T13:38:32;54706.59;;;-144.43;81.11
37486;BME280;23341;50.296;18.960;2023-07-13T13:43:37;54296.34;;;-144.43;86.36
37486;BME280;23341;50.296;18.960;2023-07-13T13:48:41;54136.25;;;-144.43;86.93
37486;BME280;23341;50.296;18.960;2023-07-13T13:53:47;53974.16;;;-144.43;88.56
37486;BME280;23341;50.296;18.960;2023-07-13T13:58:51;53646.03;;;-144.43;91.66
37486;BME280;23341;50.296;18.960;2023-07-13T14:03:55;53596.00;;;-144.43;92.10
37486;BME280;23341;50.296;18.960;2023-07-13T14:09:01;53513.97;;;-144.43;95.18
37486;BME280;23341;50.296;18.960;2023-07-13T14:14:07;53531.97;;;-144.43;92.81
37486;BME280;23341;50.296;18.960;2023-07-13T14:19:13;53525.97;;;-144.43;94.85
37486;BME280;23341;50.296;18.960;2023-07-13T14:24:21;53347.91;;;-144.43;100.00
37486;BME280;23341;50.296;18.960;2023-07-13T14:29:25;53714.03;;;-144.43;96.33
37486;BME280;23341;50.296;18.960;2023-07-13T14:34:29;53766.06;;;-144.43;94.14
37486;BME280;23341;50.296;18.960;2023-07-13T14:39:34;53618.00;;;-144.43;94.88
37486;BME280;23341;50.296;18.960;2023-07-13T14:44:38;53596.00;;;-144.43;93.03
37486;BME280;23341;50.296;18.960;2023-07-13T14:49:43;53636.00;;;-144.43;93.19
37486;BME280;23341;50.296;18.960;2023-07-13T14:54:51;54022.19;;;-144.43;87.76
37486;BME280;23341;50.296;18.960;2023-07-13T14:59:56;54722.59;;;-144.43;71.22
37486;BME280;23341;50.296;18.960;2023-07-13T15:05:00;55138.91;;;-144.43;63.28
37486;BME280;23341;50.296;18.960;2023-07-13T15:10:18;55253.00;;;-144.43;61.47
37486;BME280;23341;50.296;18.960;2023-07-13T15:15:22;54458.44;;;-144.43;63.57
37486;BME280;23341;50.296;18.960;2023-07-13T15:20:28;54586.50;;;-144.43;63.74
37486;BME280;23341;50.296;18.960;2023-07-13T15:25:37;53974.16;;;-144.43;71.93
37486;BME280;23341;50.296;18.960;2023-07-13T15:30:42;53908.13;;;-144.43;72.66
37486;BME280;23341;50.296;18.960;2023-07-13T15:35:47;54466.44;;;-144.43;66.85
37486;BME280;23341;50.296;18.960;2023-07-13T15:40:55;55054.84;;;-144.43;62.70
37486;BME280;23341;50.296;18.960;2023-07-13T15:45:59;55154.91;;;-144.43;61.85
37486;BME280;23341;50.296;18.960;2023-07-13T15:51:09;55042.81;;;-144.43;60.91
37486;BME280;23341;50.296;18.960;2023-07-13T15:56:21;54032.19;;;-144.43;67.07
37486;BME280;23341;50.296;18.960;2023-07-13T16:01:26;54502.44;;;-144.43;63.91
37486;BME280;23341;50.296;18.960;2023-07-13T16:06:32;54486.44;;;-144.43;63.07
37486;BME280;23341;50.296;18.960;2023-07-13T16:11:39;54480.44;;;-144.43;64.35
37486;BME280;23341;50.296;18.960;2023-07-13T16:16:43;54340.34;;;-144.43;64.04
37486;BME280;23341;50.296;18.960;2023-07-13T16:21:50;53946.16;;;-144.43;68.13
37486;BME280;23341;50.296;18.960;2023-07-13T16:26:55;53822.09;;;-144.43;68.44
37486;BME280;23341;50.296;18.960;2023-07-13T16:32:02;54254.31;;;-144.43;64.57
37486;BME280;23341;50.296;18.960;2023-07-13T16:37:15;54782.63;;;-144.43;60.89
37486;BME280;23341;50.296;18.960;2023-07-13T16:42:21;54488.44;;;-144.43;61.55
37486;BME280;23341;50.296;18.960;2023-07-13T16:47:25;54038.19;;;-144.43;65.95
37486;BME280;23341;50.296;18.960;2023-07-13T16:52:29;53742.06;;;-144.43;68.19
37486;BME280;23341;50.296;18.960;2023-07-13T16:57:34;53541.97;;;-144.43;71.04
37486;BME280;23341;50.296;18.960;2023-07-13T17:02:39;53285.88;;;-144.43;73.42
37486;BME280;23341;50.296;18.960;2023-07-13T17:07:44;53127.84;;;-144.43;75.84
37486;BME280;23341;50.296;18.960;2023-07-13T17:12:51;53147.84;;;-144.43;75.83
37486;BME280;23341;50.296;18.960;2023-07-13T17:17:55;53073.84;;;-144.43;76.22
37486;BME280;23341;50.296;18.960;2023-07-13T17:23:11;53149.84;;;-144.43;76.61
37486;BME280;23341;50.296;18.960;2023-07-13T17:28:16;53141.84;;;-144.43;76.60
37486;BME280;23341;50.296;18.960;2023-07-13T17:33:28;53107.84;;;-144.43;76.98
37486;BME280;23341;50.296;18.960;2023-07-13T17:38:35;53031.81;;;-144.43;76.04
37486;BME280;23341;50.296;18.960;2023-07-13T17:43:44;53009.81;;;-144.43;77.17
37486;BME280;23341;50.296;18.960;2023-07-13T17:48:49;52927.78;;;-144.43;78.11
37486;BME280;23341;50.296;18.960;2023-07-13T17:53:54;52929.78;;;-144.43;79.28
37486;BME280;23341;50.296;18.960;2023-07-13T17:59:02;52833.78;;;-144.43;81.20
37486;BME280;23341;50.296;18.960;2023-07-13T18:09:17;52793.78;;;-144.43;85.23
37486;BME280;23341;50.296;18.960;2023-07-13T18:14:22;52785.78;;;-144.43;86.66
37486;BME280;23341;50.296;18.960;2023-07-13T18:19:30;52743.75;;;-144.43;87.13
37486;BME280;23341;50.296;18.960;2023-07-13T18:24:35;52649.75;;;-144.43;90.08
37486;BME280;23341;50.296;18.960;2023-07-13T18:29:41;52637.75;;;-144.43;91.46
37486;BME280;23341;50.296;18.960;2023-07-13T18:34:45;52627.75;;;-144.43;93.99
37486;BME280;23341;50.296;18.960;2023-07-13T18:39:51;52603.75;;;-144.43;95.57
37486;BME280;23341;50.296;18.960;2023-07-13T18:44:57;52517.72;;;-144.43;98.44
37486;BME280;23341;50.296;18.960;2023-07-13T18:50:00;52543.72;;;-144.43;100.00
37486;BME280;23341;50.296;18.960;2023-07-13T18:55:12;52535.72;;;-144.43;100.00
37486;BME280;23341;50.296;18.960;2023-07-13T19:00:18;52493.72;;;-144.43;100.00
37486;BME280;23341;50.296;18.960;2023-07-13T19:05:27;52523.72;;;-144.43;100.00
37486;BME280;23341;50.296;18.960;2023-07-13T19:10:32;52541.72;;;-144.43;100.00
37486;BME280;23341;50.296;18.960;2023-07-13T19:15:37;52529.72;;;-144.43;100.00
37486;BME280;23341;50.296;18.960;2023-07-13T19:20:41;52509.72;;;-144.43;100.00
37486;BME280;23341;50.296;18.960;2023-07-13T19:25:46;52501.72;;;-144.43;100.00
37486;BME280;23341;50.296;18.960;2023-07-13T19:30:51;52479.72;;;-144.43;100.00
37486;BME280;23341;50.296;18.960;2023-07-13T19:35:55;52501.72;;;-144.43;100.00
37486;BME280;23341;50.296;18.960;2023-07-13T19:40:59;52541.72;;;-144.43;100.00
37486;BME280;23341;50.296;18.960;2023-07-13T19:46:04;52501.72;;;-144.43;100.00
37486;BME280;23341;50.296;18.960;2023-07-13T19:51:14;52539.72;;;-144.43;100.00
37486;BME280;23341;50.296;18.960;2023-07-13T19:56:19;52539.72;;;-144.43;100.00
37486;BME280;23341;50.296;18.960;2023-07-13T20:01:25;52529.72;;;-144.43;100.00
37486;BME280;23341;50.296;18.960;2023-07-13T20:06:32;52445.72;;;-144.43;100.00
37486;BME280;23341;50.296;18.960;2023-07-13T20:11:36;52475.72;;;-144.43;100.00
37486;BME280;23341;50.296;18.960;2023-07-13T20:16:41;52493.72;;;-144.43;100.00
37486;BME280;23341;50.296;18.960;2023-07-13T20:21:45;52533.72;;;-144.43;100.00
37486;BME280;23341;50.296;18.960;2023-07-13T20:26:49;52563.72;;;-144.43;100.00
37486;BME280;23341;50.296;18.960;2023-07-13T20:31:54;52605.75;;;-144.43;100.00
37486;BME280;23341;50.296;18.960;2023-07-13T20:37:01;52557.72;;;-144.43;100.00
37486;BME280;23341;50.296;18.960;2023-07-13T20:42:09;52577.75;;;-144.43;100.00
37486;BME280;23341;50.296;18.960;2023-07-13T20:47:15;52543.72;;;-144.43;100.00
37486;BME280;23341;50.296;18.960;2023-07-13T20:52:21;52559.72;;;-144.43;100.00
37486;BME280;23341;50.296;18.960;2023-07-13T20:57:25;52577.75;;;-144.43;100.00
37486;BME280;23341;50.296;18.960;2023-07-13T21:02:32;52513.72;;;-144.43;100.00
37486;BME280;23341;50.296;18.960;2023-07-13T21:07:36;52501.72;;;-144.43;100.00
37486;BME280;23341;50.296;18.960;2023-07-13T21:12:40;52517.72;;;-144.43;100.00
37486;BME280;23341;50.296;18.960;2023-07-13T21:17:47;52549.72;;;-144.43;100.00
37486;BME280;23341;50.296;18.960;2023-07-13T21:22:52;52503.72;;;-144.43;100.00
37486;BME280;23341;50.296;18.960;2023-07-13T21:27:57;52523.72;;;-144.43;100.00
37486;BME280;23341;50.296;18.960;2023-07-13T21:33:03;52509.72;;;-144.43;100.00
37486;BME280;23341;50.296;18.960;2023-07-13T21:38:16;52533.72;;;-144.43;100.00
37486;BME280;23341;50.296;18.960;2023-07-13T21:43:20;52561.72;;;-144.43;100.00
37486;BME280;23341;50.296;18.960;2023-07-13T21:48:25;52545.72;;;-144.43;100.00
37486;BME280;23341;50.296;18.960;2023-07-13T21:53:31;52529.72;;;-144.43;100.00
37486;BME280;23341;50.296;18.960;2023-07-13T21:58:35;52581.75;;;-144.43;100.00
37486;BME280;23341;50.296;18.960;2023-07-13T22:03:40;52561.72;;;-144.43;100.00
37486;BME280;23341;50.296;18.960;2023-07-13T22:08:44;52547.72;;;-144.43;100.00
37486;BME280;23341;50.296;18.960;2023-07-13T22:13:49;52569.72;;;-144.43;100.00
37486;BME280;23341;50.296;18.960;2023-07-13T22:18:56;52577.75;;;-144.43;100.00
37486;BME280;23341;50.296;18.960;2023-07-13T22:24:00;52621.75;;;-144.43;100.00
37486;BME280;23341;50.296;18.960;2023-07-13T22:29:10;52637.75;;;-144.43;100.00
37486;BME280;23341;50.296;18.960;2023-07-13T22:34:18;52661.75;;;-144.43;100.00
37486;BME280;23341;50.296;18.960;2023-07-13T22:39:26;52655.75;;;-144.43;100.00
37486;BME280;23341;50.296;18.960;2023-07-13T22:44:31;52633.75;;;-144.43;100.00
37486;BME280;23341;50.296;18.960;2023-07-13T22:49:37;52615.75;;;-144.43;100.00
37486;BME280;23341;50.296;18.960;2023-07-13T22:54:41;52587.75;;;-144.43;100.00
37486;BME280;23341;50.296;18.960;2023-07-13T22:59:45;52585.75;;;-144.43;100.00
37486;BME280;23341;50.296;18.960;2023-07-13T23:04:50;52583.75;;;-144.43;100.00
37486;BME280;23341;50.296;18.960;2023-07-13T23:09:54;52511.72;;;-144.43;100.00
37486;BME280;23341;50.296;18.960;2023-07-13T23:15:10;52525.72;;;-144.43;100.00
37486;BME280;23341;50.296;18.960;2023-07-13T23:20:23;52529.72;;;-144.43;100.00
37486;BME280;23341;50.296;18.960;2023-07-13T23:25:29;52513.72;;;-144.43;100.00
37486;BME280;23341;50.296;18.960;2023-07-13T23:30:35;52523.72;;;-144.43;100.00
37486;BME280;23341;50.296;18.960;2023-07-13T23:35:41;52483.72;;;-144.43;100.00
37486;BME280;23341;50.296;18.960;2023-07-13T23:40:45;52493.72;;;-144.43;100.00
37486;BME280;23341;50.296;18.960;2023-07-13T23:45:49;52471.72;;;-144.43;100.00
37486;BME280;23341;50.296;18.960;2023-07-13T23:50:55;52531.72;;;-144.43;100.00
37486;BME280;23341;50.296;18.960;2023-07-13T23:55:59;52505.72;;;-144.43;100.00
